Time;durP1;ratioP1;P1;durP2;ratioP2;P2;SDS_P1;SDS_P2;PMS_P1;PMS_P2;Temp;Humidity;BMP_temperature;BMP_pressure;BME280_temperature;BME280_humidity;BME280_pressure;Samples;Min_cycle;Max_cycle;Signal;HPM_P1;HPM_P2
2021/11/17 02:31:42;;;;;;;28.25;13.60;;;;;;;2.68;100.00;99672.91;4184205;84;28478;-84
2021/11/17 02:37:52;;;;;;;29.45;13.88;;;;;;;2.70;100.00;99666.09;4268207;82;28470;-83
2021/11/17 02:44:05;;;;;;;29.42;14.28;;;;;;;2.71;100.00;99657.13;4262682;82;28541;-82
2021/11/17 02:50:40;;;;;;;29.37;14.05;;;;;;;2.62;100.00;99650.50;4261331;82;28514;-84
2021/11/17 02:57:19;;;;;;;26.93;13.20;;;;;;;2.59;100.00;99655.30;4228393;84;28510;-84
2021/11/17 03:03:51;;;;;;;27.30;13.30;;;;;;;2.49;100.00;99652.78;4263132;83;28481;-81
2021/11/17 03:10:04;;;;;;;26.77;13.62;;;;;;;2.65;100.00;99659.45;4227656;84;28470;-81
2021/11/17 03:16:28;;;;;;;29.50;14.25;;;;;;;2.50;100.00;99651.30;4220296;83;28478;-80
2021/11/17 03:22:43;;;;;;;23.02;12.25;;;;;;;2.35;100.00;99659.58;4244889;83;28462;-77
2021/11/17 03:29:20;;;;;;;24.30;12.05;;;;;;;2.28;100.00;99650.59;4252305;82;28454;-81
2021/11/17 03:35:36;;;;;;;23.35;11.68;;;;;;;2.32;100.00;99642.16;4352732;81;28448;-82
2021/11/17 03:42:03;;;;;;;27.77;12.68;;;;;;;2.20;100.00;99648.76;4242105;82;28488;-81
2021/11/17 03:48:25;;;;;;;25.37;13.08;;;;;;;2.26;100.00;99639.32;4317801;81;28488;-82
2021/11/17 03:54:42;;;;;;;23.85;12.47;;;;;;;2.25;100.00;99640.31;4347167;81;28587;-82
2021/11/17 04:01:13;;;;;;;22.42;11.28;;;;;;;2.18;100.00;99632.15;4343292;80;28459;-84
2021/11/17 04:07:48;;;;;;;24.23;12.25;;;;;;;2.25;100.00;99624.39;4261470;82;28507;-85
2021/11/17 04:14:18;;;;;;;26.37;12.07;;;;;;;2.19;100.00;99625.88;4243014;82;28523;-83
2021/11/17 04:20:44;;;;;;;27.27;12.60;;;;;;;2.15;100.00;99624.52;4248432;82;28554;-83
2021/11/17 04:27:16;;;;;;;23.93;11.70;;;;;;;2.21;100.00;99628.67;4215751;83;28457;-84
2021/11/17 04:33:59;;;;;;;23.22;11.63;;;;;;;2.05;100.00;99622.83;4240219;83;28461;-86
2021/11/17 04:40:14;;;;;;;20.00;11.05;;;;;;;1.95;100.00;99633.59;4259635;83;28477;-84
2021/11/17 04:46:46;;;;;;;22.30;11.38;;;;;;;1.93;100.00;99630.27;4241989;84;28511;-85
2021/11/17 04:53:30;;;;;;;24.55;11.85;;;;;;;1.88;100.00;99634.39;4243519;84;28454;-85
2021/11/17 05:00:01;;;;;;;23.15;11.45;;;;;;;1.92;100.00;99629.91;4242377;84;28477;-82
2021/11/17 05:06:43;;;;;;;22.22;12.13;;;;;;;1.85;100.00;99630.72;4235963;83;28485;-86
2021/11/17 05:13:16;;;;;;;22.10;11.90;;;;;;;1.83;100.00;99626.92;4266710;82;28572;-84
2021/11/17 05:19:22;;;;;;;25.35;12.18;;;;;;;1.96;100.00;99621.14;4270239;83;28511;-83
2021/11/17 05:25:32;;;;;;;28.25;13.65;;;;;;;1.89;100.00;99613.00;4324469;81;28530;-84
2021/11/17 05:31:57;;;;;;;27.55;12.85;;;;;;;1.79;100.00;99613.63;4328752;82;28525;-84
2021/11/17 05:38:07;;;;;;;26.77;13.87;;;;;;;1.66;100.00;99619.36;4333348;82;28483;-82
2021/11/17 05:44:28;;;;;;;24.18;12.15;;;;;;;1.71;100.00;99611.78;4333358;82;28495;-84
2021/11/17 05:51:10;;;;;;;24.07;12.20;;;;;;;1.59;100.00;99622.33;4333323;82;28483;-83
2021/11/17 05:57:44;;;;;;;25.88;12.05;;;;;;;1.76;100.00;99629.86;4330956;82;28480;-84
2021/11/17 06:04:05;;;;;;;24.12;12.25;;;;;;;1.50;100.00;99633.36;4320466;81;28494;-83
2021/11/17 06:10:12;;;;;;;23.27;11.38;;;;;;;1.52;100.00;99636.71;4136545;84;28491;-86
2021/11/17 06:16:14;;;;;;;23.32;11.10;;;;;;;1.57;100.00;99645.01;4227114;83;28526;-85
2021/11/17 06:22:18;;;;;;;23.87;12.73;;;;;;;1.64;100.00;99650.02;4228989;83;28480;-84
2021/11/17 06:28:27;;;;;;;24.07;11.90;;;;;;;1.67;100.00;99655.00;4159870;86;28516;-83
2021/11/17 06:34:42;;;;;;;23.18;12.47;;;;;;;1.69;100.00;99661.48;4210010;84;28478;-85
2021/11/17 06:40:49;;;;;;;24.40;11.53;;;;;;;1.67;100.00;99652.35;4223301;84;28520;-86
2021/11/17 06:46:52;;;;;;;22.00;11.48;;;;;;;1.71;100.00;99656.84;4246326;82;28457;-87
2021/11/17 06:52:54;;;;;;;21.05;11.10;;;;;;;1.61;100.00;99650.83;4225526;83;28478;-89
2021/11/17 06:58:55;;;;;;;21.30;11.20;;;;;;;1.62;100.00;99659.11;4229589;83;28441;-87
2021/11/17 07:04:56;;;;;;;19.35;10.98;;;;;;;1.67;100.00;99651.02;4224737;83;28514;-86
2021/11/17 07:10:58;;;;;;;19.73;10.82;;;;;;;1.85;100.00;99651.45;4231730;83;28446;-83
2021/11/17 07:17:00;;;;;;;19.35;11.25;;;;;;;1.91;100.00;99654.77;4231204;83;28468;-87
2021/11/17 07:23:04;;;;;;;21.77;11.73;;;;;;;1.88;100.00;99652.45;4219097;83;28474;-82
2021/11/17 07:29:06;;;;;;;21.62;12.40;;;;;;;2.08;100.00;99656.17;4252495;83;28438;-84
2021/11/17 07:35:09;;;;;;;25.10;12.95;;;;;;;2.16;100.00;99658.86;4224921;83;28531;-85
2021/11/17 07:41:11;;;;;;;22.22;11.65;;;;;;;2.25;100.00;99654.91;4226086;83;28520;-83
2021/11/17 07:47:12;;;;;;;24.55;11.90;;;;;;;2.30;100.00;99655.24;4229360;83;28464;-85
2021/11/17 07:53:17;;;;;;;24.20;13.10;;;;;;;2.27;100.00;99666.19;4255443;83;28514;-83
2021/11/17 07:59:25;;;;;;;28.93;13.50;;;;;;;2.43;100.00;99665.39;4195343;84;28444;-86
2021/11/17 08:05:27;;;;;;;21.60;12.10;;;;;;;2.57;100.00;99661.28;4256328;82;28467;-88
2021/11/17 08:11:29;;;;;;;23.90;11.93;;;;;;;2.68;100.00;99659.64;4303834;81;28502;-79
2021/11/17 08:17:30;;;;;;;24.72;13.13;;;;;;;2.81;100.00;99667.09;4313991;81;28498;-85
2021/11/17 08:23:32;;;;;;;27.15;13.25;;;;;;;2.72;100.00;99663.61;4334304;81;28485;-87
2021/11/17 08:29:33;;;;;;;26.62;13.75;;;;;;;2.99;100.00;99655.48;4323993;81;28549;-86
2021/11/17 08:35:35;;;;;;;26.97;13.62;;;;;;;3.19;100.00;99652.01;4323645;81;28496;-87
2021/11/17 08:41:37;;;;;;;26.60;12.45;;;;;;;3.09;100.00;99648.17;4331299;81;28484;-86
2021/11/17 08:47:39;;;;;;;32.05;14.40;;;;;;;3.26;100.00;99653.48;4317616;81;28447;-81
2021/11/17 08:53:43;;;;;;;29.48;14.55;;;;;;;3.28;100.00;99658.97;4330405;81;28498;-83
2021/11/17 08:59:50;;;;;;;24.75;13.60;;;;;;;3.23;100.00;99659.96;4322797;81;28489;-84
2021/11/17 09:05:56;;;;;;;24.25;13.32;;;;;;;3.24;100.00;99660.80;4295634;81;28454;-81
2021/11/17 09:11:58;;;;;;;26.27;13.10;;;;;;;3.17;100.00;99654.82;4317095;80;28538;-82
2021/11/17 09:18:00;;;;;;;26.23;14.05;;;;;;;3.32;100.00;99664.27;4336552;81;28610;-82
2021/11/17 09:24:04;;;;;;;25.77;13.78;;;;;;;3.55;100.00;99651.59;4286056;81;28496;-81
2021/11/17 09:30:09;;;;;;;28.17;14.20;;;;;;;3.81;100.00;99643.05;4283827;81;28497;-89
2021/11/17 09:36:11;;;;;;;26.77;14.17;;;;;;;3.98;100.00;99641.14;4260609;82;34400;-78
2021/11/17 09:42:13;;;;;;;27.80;14.18;;;;;;;4.01;100.00;99642.12;4275272;82;28466;-78
2021/11/17 09:48:19;;;;;;;26.35;15.05;;;;;;;4.03;100.00;99648.94;4197750;82;28517;-78
2021/11/17 09:54:44;;;;;;;26.85;15.55;;;;;;;4.18;100.00;99644.23;4276791;82;28469;-75
2021/11/17 10:00:57;;;;;;;26.90;15.58;;;;;;;4.16;100.00;99634.23;4273062;82;28485;-77
2021/11/17 10:07:53;;;;;;;28.60;15.18;;;;;;;4.22;100.00;99623.39;4269224;81;28497;-79
2021/11/17 10:13:52;;;;;;;25.08;14.15;;;;;;;4.36;100.00;99620.48;4269515;81;28523;-76
2021/11/17 10:20:13;;;;;;;33.23;16.70;;;;;;;4.75;100.00;99608.89;4266717;82;28466;-77
2021/11/17 10:26:17;;;;;;;31.17;16.42;;;;;;;4.86;100.00;99600.99;4256142;82;28466;-85
2021/11/17 10:32:39;;;;;;;32.25;17.70;;;;;;;5.13;100.00;99594.23;4263883;82;28479;-84
2021/11/17 10:38:46;;;;;;;28.17;15.40;;;;;;;5.21;100.00;99596.52;4276466;82;28495;-85
2021/11/17 10:45:02;;;;;;;29.87;16.00;;;;;;;5.36;100.00;99587.16;4280335;82;28472;-85
2021/11/17 10:51:19;;;;;;;;;;;;;;;5.61;100.00;99593.05;4301462;82;28464;-81
2021/11/17 10:57:25;;;;;;;31.02;16.93;;;;;;;5.66;100.00;99584.00;4269194;82;20193;-84
2021/11/17 11:03:37;;;;;;;;;;;;;;;5.82;100.00;99575.45;4240460;81;28514;-80
2021/11/17 11:09:44;;;;;;;34.50;17.57;;;;;;;5.92;100.00;99572.51;4269933;81;20227;-83
2021/11/17 11:15:51;;;;;;;32.67;17.87;;;;;;;5.94;100.00;99569.98;4322164;81;28529;-83
2021/11/17 11:22:00;;;;;;;31.85;17.67;;;;;;;6.07;100.00;99558.63;4302630;81;28541;-79
2021/11/17 11:28:25;;;;;;;34.88;19.35;;;;;;;6.23;100.00;99562.91;4290586;83;28470;-82
2021/11/17 11:34:44;;;;;;;36.53;18.57;;;;;;;6.29;100.00;99554.64;4311448;81;28479;-87
2021/11/17 11:41:31;;;;;;;37.73;19.92;;;;;;;6.40;100.00;99542.64;4290576;82;28441;-84
2021/11/17 11:47:44;;;;;;;36.85;19.02;;;;;;;6.34;100.00;99537.55;4266135;81;28467;-84
2021/11/17 11:54:15;;;;;;;36.63;18.95;;;;;;;6.50;100.00;99533.80;4240713;82;28501;-86
2021/11/17 12:00:33;;;;;;;43.33;20.68;;;;;;;6.73;100.00;99529.26;4206124;83;28460;-88
2021/11/17 12:06:40;;;;;;;44.60;21.40;;;;;;;6.66;100.00;99534.03;4189067;83;28566;-88
2021/11/17 12:12:43;;;;;;;48.52;23.80;;;;;;;6.72;100.00;99543.61;4165346;84;28495;-86
2021/11/17 12:18:55;;;;;;;55.12;24.80;;;;;;;6.64;100.00;99537.41;4176368;84;28435;-85
2021/11/17 12:25:11;;;;;;;46.92;23.87;;;;;;;6.58;100.00;99542.17;4143926;85;28468;-87
2021/11/17 12:31:21;;;;;;;49.25;22.30;;;;;;;6.47;100.00;99542.70;4188734;84;28438;-89
2021/11/17 12:37:49;;;;;;;47.90;24.30;;;;;;;6.72;100.00;99542.28;4187666;84;28471;-89
2021/11/17 12:44:01;;;;;;;52.20;24.92;;;;;;;6.78;100.00;99541.02;4460919;78;28490;-89
2021/11/17 12:50:11;;;;;;;51.70;26.60;;;;;;;6.77;100.00;99535.36;4491139;77;28448;-87
2021/11/17 12:56:39;;;;;;;51.42;26.90;;;;;;;6.81;100.00;99531.27;4520595;78;28478;-88
2021/11/17 13:03:01;;;;;;;49.23;24.47;;;;;;;6.83;100.00;99534.56;4492260;77;28479;-85
2021/11/17 13:09:36;;;;;;;46.80;22.58;;;;;;;6.69;100.00;99534.97;4436067;78;28480;-88
2021/11/17 13:15:55;;;;;;;45.65;24.60;;;;;;;6.61;100.00;99539.14;4446826;79;29456;-88
2021/11/17 13:22:01;;;;;;;51.60;24.85;;;;;;;6.81;100.00;99538.45;4444789;78;28497;-88
2021/11/17 13:28:06;;;;;;;54.03;25.82;;;;;;;6.73;100.00;99527.39;4416439;79;28507;-84
2021/11/17 13:34:39;;;;;;;48.52;24.85;;;;;;;6.62;100.00;99525.25;4437628;78;28466;-85
2021/11/17 13:40:43;;;;;;;52.00;23.70;;;;;;;6.62;100.00;99527.43;4438895;79;28525;-87
2021/11/17 13:46:59;;;;;;;47.67;22.00;;;;;;;6.57;100.00;99526.36;4496191;77;28480;-85
2021/11/17 13:53:05;;;;;;;48.92;25.37;;;;;;;6.57;100.00;99525.02;4499274;78;28488;-84
2021/11/17 13:59:07;;;;;;;50.23;27.17;;;;;;;6.49;100.00;99536.64;4520149;77;28494;-84
2021/11/17 14:05:09;;;;;;;59.93;29.32;;;;;;;6.39;100.00;99519.09;4520136;77;28590;-84
2021/11/17 14:11:12;;;;;;;56.50;28.98;;;;;;;6.46;100.00;99531.20;4521421;77;28552;-85
2021/11/17 14:17:14;;;;;;;54.13;27.07;;;;;;;6.41;100.00;99534.45;4538086;77;28487;-84
2021/11/17 14:23:17;;;;;;;48.80;25.40;;;;;;;6.43;100.00;99530.75;4510970;77;28486;-84
2021/11/17 14:29:35;;;;;;;50.88;26.15;;;;;;;6.55;100.00;99531.36;4495873;77;28552;-82
2021/11/17 14:35:38;;;;;;;53.60;25.65;;;;;;;6.40;100.00;99522.11;4449783;77;28480;-84
2021/11/17 14:41:40;;;;;;;52.75;25.48;;;;;;;6.41;100.00;99512.23;4528368;77;28449;-89
2021/11/17 14:47:43;;;;;;;48.78;23.60;;;;;;;6.40;100.00;99506.58;4528389;77;28507;-84
2021/11/17 14:53:48;;;;;;;45.28;22.30;;;;;;;6.37;100.00;99499.77;4509722;76;28506;-85
2021/11/17 14:59:51;;;;;;;50.40;24.13;;;;;;;6.42;100.00;99501.87;4523992;76;28428;-84
2021/11/17 15:05:52;;;;;;;50.90;24.77;;;;;;;6.44;100.00;99510.51;4511445;76;28485;-83
2021/11/17 15:12:01;;;;;;;48.02;24.95;;;;;;;6.45;100.00;99506.00;4526215;76;28458;-83
2021/11/17 15:18:04;;;;;;;51.35;26.42;;;;;;;6.37;100.00;99509.12;4505514;77;28456;-86
2021/11/17 15:24:05;;;;;;;49.05;24.10;;;;;;;6.33;100.00;99501.19;4520657;77;28460;-90
2021/11/17 15:30:13;;;;;;;49.70;24.37;;;;;;;6.08;100.00;99511.42;4388809;80;28586;-89
2021/11/17 15:36:16;;;;;;;58.60;27.90;;;;;;;6.17;100.00;99504.10;4369691;79;28495;-87
2021/11/17 15:42:17;;;;;;;56.25;27.32;;;;;;;6.20;100.00;99505.08;4496833;77;28492;-88
2021/11/17 15:48:21;;;;;;;60.78;28.67;;;;;;;6.23;100.00;99506.02;4504306;76;28473;-82
2021/11/17 15:54:23;;;;;;;58.10;26.02;;;;;;;6.16;100.00;99509.97;4494787;77;28486;-87
2021/11/17 16:00:26;;;;;;;48.78;24.05;;;;;;;5.98;100.00;99506.34;4495316;76;28450;-86
2021/11/17 16:06:32;;;;;;;41.60;21.82;;;;;;;6.06;100.00;99505.45;4535934;77;28482;-86
2021/11/17 16:12:34;;;;;;;52.13;24.30;;;;;;;5.78;100.00;99503.47;4495010;77;28540;-85
2021/11/17 16:18:36;;;;;;;53.80;24.00;;;;;;;6.00;100.00;99504.34;4502074;77;28517;-85
2021/11/17 16:31:00;;;;;;;52.30;24.77;;;;;;;5.97;100.00;99499.36;4516937;77;28526;-87
2021/11/17 16:37:02;;;;;;;45.60;22.22;;;;;;;6.02;100.00;99502.83;4538988;77;28542;-84
2021/11/17 16:43:07;;;;;;;47.10;22.42;;;;;;;6.00;100.00;99501.66;4533291;76;28555;-86
2021/11/17 16:49:16;;;;;;;47.78;21.87;;;;;;;5.99;100.00;99505.36;4491096;78;28439;-88
2021/11/17 16:55:23;;;;;;;53.00;25.35;;;;;;;6.03;100.00;99512.48;4429522;78;28512;-84
2021/11/17 17:01:24;;;;;;;57.53;25.55;;;;;;;6.04;100.00;99515.47;4528686;77;28431;-86
2021/11/17 17:07:26;;;;;;;49.42;25.37;;;;;;;6.07;100.00;99519.92;4490208;77;28491;-86
2021/11/17 17:13:28;;;;;;;47.50;25.23;;;;;;;6.15;100.00;99521.67;4427754;78;28441;-89
2021/11/17 17:19:30;;;;;;;43.95;22.50;;;;;;;6.05;100.00;99519.30;4571928;77;28446;-86
2021/11/17 17:25:33;;;;;;;44.20;22.07;;;;;;;6.21;100.00;99536.09;4567231;76;28609;-88
2021/11/17 17:31:35;;;;;;;42.98;21.93;;;;;;;6.26;100.00;99526.99;4511176;77;28487;-88
2021/11/17 17:37:37;;;;;;;47.53;24.43;;;;;;;6.36;100.00;99525.36;4535704;77;28458;-88
2021/11/17 17:43:39;;;;;;;46.10;25.27;;;;;;;6.30;100.00;99528.28;4348456;79;28517;-87
2021/11/17 17:49:43;;;;;;;46.50;22.62;;;;;;;6.31;100.00;99527.27;4311133;81;28493;-88
2021/11/17 17:55:45;;;;;;;43.20;22.22;;;;;;;6.19;100.00;99535.44;4396466;79;28484;-84
2021/11/17 18:01:48;;;;;;;41.68;21.25;;;;;;;6.24;100.00;99537.85;4433223;79;28520;-83
2021/11/17 18:07:55;;;;;;;40.65;20.23;;;;;;;6.34;100.00;99544.23;4467821;78;28536;-85
2021/11/17 18:13:56;;;;;;;44.67;22.98;;;;;;;6.34;100.00;99537.55;4434591;78;28457;-83
2021/11/17 18:19:58;;;;;;;48.08;24.67;;;;;;;6.29;100.00;99529.27;4436745;79;28465;-85
2021/11/17 18:26:11;;;;;;;43.63;22.75;;;;;;;6.29;100.00;99535.95;4467597;78;28440;-88
2021/11/17 18:32:17;;;;;;;49.15;23.57;;;;;;;6.17;100.00;99549.00;4436837;78;28537;-89
2021/11/17 18:38:18;;;;;;;43.85;22.42;;;;;;;6.09;100.00;99545.95;4462806;78;28482;-85
2021/11/17 18:44:23;;;;;;;52.83;25.77;;;;;;;6.16;100.00;99543.34;4482907;77;28486;-82
2021/11/17 18:50:25;;;;;;;59.98;27.45;;;;;;;6.24;100.00;99548.53;4529086;77;28439;-83
2021/11/17 18:56:26;;;;;;;48.23;24.60;;;;;;;6.19;100.00;99555.47;4479369;77;28480;-86
2021/11/17 19:02:40;;;;;;;49.70;23.95;;;;;;;6.24;100.00;99562.41;4513949;77;28622;-87
2021/11/17 19:08:42;;;;;;;48.15;24.87;;;;;;;6.37;100.00;99574.55;4517872;77;28502;-84
2021/11/17 19:14:43;;;;;;;49.95;24.67;;;;;;;6.32;100.00;99578.81;4503476;77;28489;-87
2021/11/17 19:20:44;;;;;;;50.30;24.70;;;;;;;6.29;100.00;99576.01;4476969;77;28460;-83
2021/11/17 19:26:46;;;;;;;50.28;25.30;;;;;;;6.35;100.00;99585.10;4445252;78;28448;-84
2021/11/17 19:32:49;;;;;;;46.92;24.00;;;;;;;6.33;100.00;99583.98;4479059;77;28466;-85
2021/11/17 19:38:53;;;;;;;51.70;25.08;;;;;;;6.33;100.00;99585.80;4469799;77;28454;-85
2021/11/17 19:44:55;;;;;;;56.77;27.85;;;;;;;6.44;100.00;99594.65;4517916;77;28460;-88
2021/11/17 19:50:56;;;;;;;59.30;28.87;;;;;;;6.47;100.00;99596.13;4569847;77;28436;-85
2021/11/17 19:56:57;;;;;;;56.83;27.15;;;;;;;6.48;100.00;99596.44;4485005;77;28490;-83
2021/11/17 20:02:59;;;;;;;55.30;26.05;;;;;;;6.39;100.00;99601.89;4421873;79;28535;-82
2021/11/17 20:09:01;;;;;;;64.55;30.62;;;;;;;6.21;100.00;99604.19;4379771;79;28540;-83
2021/11/17 20:15:08;;;;;;;55.15;26.30;;;;;;;6.30;100.00;99604.89;4378946;80;28501;-85
2021/11/17 20:21:10;;;;;;;53.95;26.45;;;;;;;6.25;100.00;99603.63;4340810;80;28580;-82
2021/11/17 20:27:14;;;;;;;57.78;27.80;;;;;;;6.33;100.00;99608.02;4476082;78;28529;-80
2021/11/17 20:33:20;;;;;;;57.80;27.67;;;;;;;6.33;100.00;99602.67;4385787;79;28467;-82
2021/11/17 20:39:21;;;;;;;;;;;;;;;6.29;100.00;99609.39;4447567;77;28477;-90
2021/11/17 20:45:27;;;;;;;51.42;23.65;;;;;;;6.20;100.00;99614.55;4475796;77;20543;-87
2021/11/17 20:51:28;;;;;;;49.47;24.60;;;;;;;6.24;100.00;99612.63;4491855;77;28444;-87
2021/11/17 20:57:30;;;;;;;51.92;24.43;;;;;;;6.27;100.00;99607.42;4460999;78;28495;-86
2021/11/17 21:03:32;;;;;;;46.60;22.00;;;;;;;6.16;100.00;99610.58;4460997;77;28527;-89
2021/11/17 21:09:35;;;;;;;46.00;21.52;;;;;;;6.17;100.00;99606.41;4463696;77;28493;-88
2021/11/17 21:15:41;;;;;;;41.37;21.17;;;;;;;6.05;100.00;99609.25;4391801;78;28499;-87
2021/11/17 21:21:44;;;;;;;42.20;19.62;;;;;;;6.11;100.00;99623.16;4406244;79;28488;-86
2021/11/17 21:27:45;;;;;;;35.15;18.07;;;;;;;6.10;100.00;99619.68;4513779;77;28435;-86
2021/11/17 21:33:49;;;;;;;36.13;16.85;;;;;;;6.10;100.00;99627.69;4453670;77;28475;-85
2021/11/17 21:39:51;;;;;;;33.92;16.85;;;;;;;6.10;100.00;99629.02;4497034;77;28491;-90
2021/11/17 21:45:53;;;;;;;34.15;16.25;;;;;;;6.09;100.00;99635.38;4449753;78;28521;-89
2021/11/17 21:51:54;;;;;;;32.50;16.12;;;;;;;5.95;100.00;99638.85;4475646;77;28517;-87
2021/11/17 21:57:58;;;;;;;30.12;14.33;;;;;;;5.97;100.00;99647.00;4488906;78;28502;-88
2021/11/17 22:04:04;;;;;;;;;;;;;;;5.95;100.00;99645.03;4472731;77;28521;-87
2021/11/17 22:10:09;;;;;;;34.63;15.08;;;;;;;6.02;100.00;99650.97;4480836;77;20163;-90
2021/11/17 22:16:13;;;;;;;32.78;14.35;;;;;;;5.93;100.00;99649.70;4492916;77;28524;-84
2021/11/17 22:22:17;;;;;;;28.00;13.28;;;;;;;6.04;100.00;99647.11;4507219;77;28477;-86
2021/11/17 22:28:23;;;;;;;31.02;15.08;;;;;;;6.05;100.00;99655.44;4498406;77;28457;-85
2021/11/17 22:34:24;;;;;;;30.23;14.25;;;;;;;6.07;100.00;99661.41;4478683;77;28534;-87
2021/11/17 22:40:26;;;;;;;31.62;14.63;;;;;;;6.06;100.00;99662.43;4480670;77;28406;-89
2021/11/17 22:46:27;;;;;;;26.15;12.88;;;;;;;6.03;100.00;99664.14;4488533;77;28578;-87
2021/11/17 22:52:29;;;;;;;26.30;12.45;;;;;;;6.04;100.00;99671.14;4492725;77;28517;-86
2021/11/17 22:58:31;;;;;;;28.00;12.55;;;;;;;6.07;100.00;99664.61;4504966;77;28433;-83
2021/11/17 23:04:32;;;;;;;24.98;11.90;;;;;;;6.03;100.00;99661.48;4510814;77;28525;-84
2021/11/17 23:10:36;;;;;;;19.95;10.45;;;;;;;6.04;100.00;99662.29;4506484;77;28903;-84
2021/11/17 23:16:37;;;;;;;19.48;9.73;;;;;;;6.08;100.00;99656.91;4513685;77;28460;-85
2021/11/17 23:22:39;;;;;;;22.27;11.08;;;;;;;6.05;100.00;99658.11;4488789;77;28470;-85
2021/11/17 23:28:44;;;;;;;21.70;11.12;;;;;;;6.04;100.00;99669.80;4503802;77;28429;-86
2021/11/17 23:34:46;;;;;;;21.55;10.95;;;;;;;6.00;100.00;99673.31;4497352;77;28482;-83
2021/11/17 23:40:51;;;;;;;20.60;10.00;;;;;;;5.96;100.00;99670.70;4505335;77;28492;-83
2021/11/17 23:46:55;;;;;;;19.92;10.20;;;;;;;5.97;100.00;99673.69;4468656;77;28477;-85
2021/11/17 23:52:57;;;;;;;21.50;10.45;;;;;;;5.99;100.00;99676.19;4472673;77;28451;-83
2021/11/17 23:59:01;;;;;;;23.42;10.58;;;;;;;5.75;100.00;99683.97;4540433;77;28476;-82
